Time;durP1;ratioP1;P1;durP2;ratioP2;P2;SDS_P1;SDS_P2;PMS_P1;PMS_P2;Temp;Humidity;BMP_temperature;BMP_pressure;BME280_temperature;BME280_humidity;BME280_pressure;Samples;Min_cycle;Max_cycle;Signal;HPM_P1;HPM_P2
2022/07/10 00:00:43;;;;;;;3.58;2.95;;;;;;;26.10;45.04;100769.59;1691207;84;21060;-51
2022/07/10 00:03:10;;;;;;;4.10;2.65;;;;;;;26.08;44.54;100771.55;1694538;83;21039;-49
2022/07/10 00:05:38;;;;;;;5.70;2.90;;;;;;;26.04;44.58;100758.94;1693476;83;21512;-52
2022/07/10 00:08:04;;;;;;;3.40;3.10;;;;;;;26.03;44.92;100773.75;1691120;83;21550;-50
2022/07/10 00:10:33;;;;;;;4.33;3.12;;;;;;;26.01;44.58;100765.03;1690370;83;21003;-52
2022/07/10 00:12:59;;;;;;;3.30;2.85;;;;;;;25.99;45.04;100768.32;1690933;83;21543;-49
2022/07/10 00:15:26;;;;;;;5.87;3.33;;;;;;;25.96;44.79;100768.09;1687873;83;21114;-49
2022/07/10 00:17:55;;;;;;;3.20;2.90;;;;;;;25.94;44.71;100775.85;1693270;83;21031;-51
2022/07/10 00:20:21;;;;;;;3.42;3.12;;;;;;;25.89;44.59;100766.05;1691326;83;22451;-50
2022/07/10 00:22:48;;;;;;;3.65;3.30;;;;;;;25.86;44.53;100767.19;1692446;83;21043;-52
2022/07/10 00:25:15;;;;;;;4.75;2.70;;;;;;;25.82;45.17;100763.91;1692326;84;21020;-50
2022/07/10 00:27:42;;;;;;;3.10;2.85;;;;;;;25.79;44.98;100761.52;1693531;82;21055;-50
2022/07/10 00:30:12;;;;;;;4.45;3.10;;;;;;;25.77;44.73;100768.80;1693271;83;21530;-55
2022/07/10 00:32:39;;;;;;;2.95;2.70;;;;;;;25.74;45.06;100763.72;1696960;83;21032;-50
2022/07/10 00:35:07;;;;;;;2.92;2.72;;;;;;;25.72;45.50;100771.00;1690833;83;21028;-51
2022/07/10 00:37:36;;;;;;;3.80;3.50;;;;;;;25.70;45.71;100764.95;1690331;83;21019;-55
2022/07/10 00:40:05;;;;;;;3.47;3.17;;;;;;;25.69;45.33;100769.94;1690351;83;21023;-51
2022/07/10 00:42:32;;;;;;;3.75;2.95;;;;;;;25.68;45.46;100772.23;1690516;83;21511;-49
2022/07/10 00:44:59;;;;;;;3.10;2.90;;;;;;;25.65;45.42;100771.17;1691746;83;21047;-51
2022/07/10 00:47:26;;;;;;;7.33;2.70;;;;;;;25.64;45.61;100778.80;1693296;83;21067;-52
2022/07/10 00:49:53;;;;;;;3.05;2.85;;;;;;;25.64;45.53;100781.46;1693171;83;21047;-51
2022/07/10 00:52:20;;;;;;;3.87;3.10;;;;;;;25.63;46.04;100780.27;1696819;83;21043;-51
2022/07/10 00:54:50;;;;;;;3.58;3.00;;;;;;;25.62;45.52;100772.75;1692708;83;21106;-50
2022/07/10 00:57:17;;;;;;;3.80;3.22;;;;;;;25.61;45.41;100778.22;1692467;84;21043;-50
2022/07/10 00:59:45;;;;;;;5.47;2.60;;;;;;;25.58;45.35;100776.65;1693488;83;21524;-51
2022/07/10 01:02:12;;;;;;;3.50;2.70;;;;;;;25.58;45.81;100781.98;1693433;83;21028;-50
2022/07/10 01:04:38;;;;;;;4.40;2.90;;;;;;;25.56;45.51;100775.08;1671574;84;21008;-50
2022/07/10 01:07:06;;;;;;;3.33;3.02;;;;;;;25.54;45.77;100766.37;1690230;83;21053;-49
2022/07/10 01:09:34;;;;;;;3.17;2.83;;;;;;;25.53;45.86;100766.02;1690680;83;21532;-51
2022/07/10 01:12:02;;;;;;;3.30;3.00;;;;;;;25.49;45.79;100761.41;1690017;83;21036;-50
2022/07/10 01:14:30;;;;;;;2.98;2.60;;;;;;;25.47;46.05;100766.53;1692470;83;21546;-51
2022/07/10 01:16:58;;;;;;;2.87;2.67;;;;;;;25.44;45.75;100763.63;1700591;82;21110;-51
2022/07/10 01:19:25;;;;;;;3.08;2.87;;;;;;;25.40;45.82;100764.83;1701165;82;21583;-51
2022/07/10 01:21:52;;;;;;;3.00;2.80;;;;;;;25.38;46.23;100762.78;1700570;82;21082;-49
2022/07/10 01:24:19;;;;;;;2.80;2.60;;;;;;;25.39;46.53;100757.80;1698574;82;21051;-49
2022/07/10 01:26:46;;;;;;;2.80;2.60;;;;;;;25.39;46.45;100760.46;1703278;84;21058;-49
2022/07/10 01:29:15;;;;;;;2.95;2.75;;;;;;;25.39;46.70;100751.65;1698323;82;21071;-50
2022/07/10 01:31:42;;;;;;;4.83;3.25;;;;;;;25.39;46.39;100760.46;1698572;82;21519;-54
2022/07/10 01:34:09;;;;;;;3.50;2.95;;;;;;;25.40;46.31;100753.32;1697389;82;21042;-49
2022/07/10 01:36:37;;;;;;;3.33;3.12;;;;;;;25.39;46.04;100756.97;1698511;82;21062;-50
2022/07/10 01:39:05;;;;;;;3.12;2.83;;;;;;;25.37;46.32;100748.27;1699257;82;21043;-51
2022/07/10 01:41:32;;;;;;;2.83;2.52;;;;;;;25.36;46.61;100758.06;1698441;82;21027;-53
2022/07/10 01:43:59;;;;;;;2.85;2.65;;;;;;;25.33;46.30;100750.31;1700349;84;20991;-49
2022/07/10 01:46:27;;;;;;;3.75;2.58;;;;;;;25.32;46.15;100745.98;1701366;82;21031;-54
2022/07/10 01:48:54;;;;;;;3.12;2.72;;;;;;;25.25;45.66;100739.45;1694409;82;21075;-50
2022/07/10 01:51:21;;;;;;;2.75;2.55;;;;;;;25.26;46.10;100741.64;1698259;82;21079;-55
2022/07/10 01:53:48;;;;;;;3.45;2.70;;;;;;;25.24;46.63;100740.45;1698282;82;21091;-50
2022/07/10 01:56:15;;;;;;;2.90;2.70;;;;;;;25.19;46.53;100739.97;1699961;82;21106;-49
2022/07/10 01:58:43;;;;;;;3.42;2.70;;;;;;;25.16;46.89;100737.57;1701178;82;21035;-51
2022/07/10 02:01:11;;;;;;;2.85;2.65;;;;;;;25.13;47.09;100743.13;1700705;82;21083;-50
2022/07/10 02:06:25;;;;;;;2.95;2.65;;;;;;;25.13;46.63;100736.95;1706304;82;21512;-49
2022/07/10 02:08:52;;;;;;;3.10;2.80;;;;;;;25.14;47.43;100747.50;1698110;84;21507;-51
2022/07/10 02:11:19;;;;;;;4.47;3.00;;;;;;;25.13;47.25;100748.45;1701537;82;21507;-51
2022/07/10 02:13:46;;;;;;;3.62;2.85;;;;;;;25.14;47.35;100755.49;1698953;82;21055;-49
2022/07/10 02:16:14;;;;;;;4.67;2.70;;;;;;;25.14;47.60;100748.83;1698176;82;21555;-50
2022/07/10 02:18:41;;;;;;;2.98;2.67;;;;;;;25.11;48.17;100748.22;1698275;82;21051;-49
2022/07/10 02:21:08;;;;;;;3.85;2.60;;;;;;;25.11;47.90;100754.40;1697937;82;21047;-51
2022/07/10 02:23:35;;;;;;;2.40;2.20;;;;;;;25.09;48.09;100753.67;1698966;82;21515;-51
2022/07/10 02:26:02;;;;;;;2.27;2.08;;;;;;;25.07;48.08;100751.63;1700586;82;21039;-49
2022/07/10 02:28:30;;;;;;;3.98;2.12;;;;;;;25.04;47.05;100746.53;1701330;82;21102;-50
2022/07/10 02:30:57;;;;;;;4.83;2.25;;;;;;;25.00;47.47;100750.42;1700481;82;21046;-49
2022/07/10 02:33:24;;;;;;;2.60;2.40;;;;;;;24.95;47.99;100754.81;1698606;82;21520;-51
2022/07/10 02:35:51;;;;;;;2.42;2.22;;;;;;;24.95;47.99;100754.81;1700625;82;21087;-52
2022/07/10 02:38:17;;;;;;;2.80;2.20;;;;;;;24.92;48.15;100746.21;1701158;83;21529;-52
2022/07/10 02:40:45;;;;;;;2.90;2.33;;;;;;;24.89;47.60;100743.30;1685497;82;21058;-51
2022/07/10 02:43:12;;;;;;;2.33;2.12;;;;;;;24.85;47.73;100751.69;1703773;82;21051;-52
2022/07/10 02:45:40;;;;;;;3.65;2.27;;;;;;;24.84;47.61;100744.66;1701758;84;21095;-51
2022/07/10 02:48:08;;;;;;;2.25;2.05;;;;;;;24.78;47.33;100743.83;1692835;82;21082;-50
2022/07/10 02:50:35;;;;;;;2.50;2.00;;;;;;;24.76;47.31;100751.09;1696507;82;21526;-51
2022/07/10 02:53:03;;;;;;;2.75;2.27;;;;;;;24.74;47.72;100754.36;1701353;82;21003;-51
2022/07/10 02:55:31;;;;;;;3.75;2.20;;;;;;;24.66;47.81;100756.75;1700896;82;21539;-50
2022/07/10 02:58:03;;;;;;;3.30;2.10;;;;;;;24.66;47.81;100756.75;1704982;82;21043;-51
2022/07/10 03:00:30;;;;;;;2.70;2.00;;;;;;;24.66;47.78;100766.07;1699342;82;21027;-49
2022/07/10 03:02:57;;;;;;;7.12;2.37;;;;;;;24.64;47.68;100762.69;1700048;84;21543;-49
2022/07/10 03:05:24;;;;;;;1.95;1.77;;;;;;;24.59;47.46;100759.53;1700820;83;21043;-51
2022/07/10 03:07:51;;;;;;;4.28;2.20;;;;;;;24.57;47.48;100757.00;1701063;82;21031;-50
2022/07/10 03:10:19;;;;;;;3.58;2.77;;;;;;;24.54;48.08;100751.09;1699725;82;21059;-50
2022/07/10 03:12:47;;;;;;;2.20;2.00;;;;;;;24.53;48.00;100750.23;1698732;82;21042;-51
2022/07/10 03:15:15;;;;;;;3.10;1.98;;;;;;;24.51;48.19;100746.00;1691527;84;21077;-55
2022/07/10 03:17:42;;;;;;;4.45;2.55;;;;;;;24.49;48.20;100738.63;1713767;82;21062;-48
2022/07/10 03:20:10;;;;;;;2.92;2.15;;;;;;;24.48;48.45;100742.27;1713542;82;21480;-52
2022/07/10 03:22:37;;;;;;;2.67;2.17;;;;;;;24.44;48.95;100742.15;1710490;82;21653;-49
2022/07/10 03:25:05;;;;;;;3.05;2.12;;;;;;;24.46;48.81;100746.86;1704597;82;21046;-50
2022/07/10 03:27:33;;;;;;;2.35;2.12;;;;;;;24.43;48.95;100736.45;1710342;82;21541;-51
2022/07/10 03:29:59;;;;;;;2.67;2.08;;;;;;;24.44;49.00;100732.84;1713629;83;21017;-50
2022/07/10 03:32:27;;;;;;;3.08;1.92;;;;;;;24.44;49.00;100732.84;1713976;82;21107;-51
2022/07/10 03:34:54;;;;;;;3.62;2.12;;;;;;;24.43;48.97;100729.33;1713388;82;21030;-51
2022/07/10 03:37:20;;;;;;;3.05;2.37;;;;;;;24.44;49.11;100735.50;1711164;82;21027;-49
2022/07/10 03:39:47;;;;;;;2.65;2.08;;;;;;;24.45;49.55;100739.84;1711049;82;21022;-51
2022/07/10 03:42:14;;;;;;;2.98;2.17;;;;;;;24.46;49.26;100729.06;1711502;82;21548;-51
2022/07/10 03:44:41;;;;;;;4.35;2.15;;;;;;;24.53;49.27;100718.78;1711461;82;21546;-50
2022/07/10 03:47:08;;;;;;;1.80;1.70;;;;;;;24.61;48.73;100728.33;1711609;82;21039;-51
2022/07/10 03:49:35;;;;;;;3.45;2.10;;;;;;;24.93;48.52;100718.16;1714175;82;21562;-50
2022/07/10 03:52:03;;;;;;;5.00;2.40;;;;;;;24.93;48.52;100718.16;1714157;82;21030;-51
2022/07/10 03:54:29;;;;;;;2.25;2.05;;;;;;;25.21;47.88;100732.69;1712048;82;21081;-50
2022/07/10 03:59:43;;;;;;;4.22;2.08;;;;;;;25.79;46.22;100733.53;1717278;82;21089;-51
2022/07/10 04:02:10;;;;;;;2.05;1.95;;;;;;;26.11;45.77;100725.96;1716441;82;21585;-52
2022/07/10 04:04:37;;;;;;;4.50;2.47;;;;;;;26.34;45.16;100732.78;1713621;83;21097;-53
2022/07/10 04:07:04;;;;;;;3.72;2.20;;;;;;;26.48;44.75;100728.44;1714048;82;21019;-51
2022/07/10 04:09:32;;;;;;;3.20;1.75;;;;;;;26.50;44.78;100721.14;1712932;82;21070;-52
2022/07/10 04:11:59;;;;;;;4.92;2.10;;;;;;;26.39;44.40;100719.90;1703608;82;21518;-51
2022/07/10 04:14:26;;;;;;;2.80;2.30;;;;;;;26.22;44.95;100723.19;1707528;83;21042;-50
2022/07/10 04:16:53;;;;;;;3.20;2.08;;;;;;;26.03;45.17;100730.57;1700512;82;21123;-51
2022/07/10 04:19:21;;;;;;;4.25;2.00;;;;;;;25.80;45.40;100731.20;1698561;82;21043;-49
2022/07/10 04:21:48;;;;;;;2.35;2.12;;;;;;;25.60;45.86;100733.39;1698005;82;21032;-53
2022/07/10 04:24:14;;;;;;;4.17;2.50;;;;;;;25.44;46.29;100736.99;1697870;82;21538;-49
2022/07/10 04:26:42;;;;;;;5.42;2.22;;;;;;;25.30;46.46;100739.94;1698675;82;21071;-50
2022/07/10 04:29:09;;;;;;;3.42;2.12;;;;;;;25.19;46.48;100741.30;1700010;82;21050;-52
2022/07/10 04:31:36;;;;;;;2.87;2.12;;;;;;;25.05;46.30;100736.27;1700907;82;21074;-50
2022/07/10 04:34:03;;;;;;;2.98;2.33;;;;;;;24.95;46.08;100750.82;1700660;82;21019;-50
2022/07/10 04:36:30;;;;;;;3.47;2.20;;;;;;;24.86;46.32;100748.04;1698181;82;21043;-51
2022/07/10 04:38:57;;;;;;;2.90;2.12;;;;;;;24.80;46.40;100751.20;1703772;82;21058;-52
2022/07/10 04:41:23;;;;;;;3.37;2.35;;;;;;;24.77;46.70;100750.13;1696755;84;21007;-51
2022/07/10 04:43:51;;;;;;;4.25;2.00;;;;;;;24.73;46.66;100746.85;1711130;82;21062;-50
2022/07/10 04:46:18;;;;;;;3.33;2.10;;;;;;;24.68;46.79;100754.81;1699313;83;21058;-51
2022/07/10 04:48:44;;;;;;;2.12;1.95;;;;;;;24.65;47.14;100747.06;1700599;84;21033;-51
2022/07/10 04:51:11;;;;;;;3.47;2.42;;;;;;;24.64;47.20;100744.06;1701403;82;21035;-50
2022/07/10 04:53:38;;;;;;;3.67;2.15;;;;;;;24.62;46.89;100732.70;1701403;82;21031;-51
2022/07/10 04:56:06;;;;;;;2.67;2.47;;;;;;;24.63;47.99;100732.56;1699143;82;21583;-51
2022/07/10 04:58:33;;;;;;;2.42;2.05;;;;;;;24.65;47.64;100740.41;1698558;82;21563;-51
2022/07/10 05:01:00;;;;;;;4.95;2.30;;;;;;;24.65;47.64;100740.41;1698395;82;21071;-49
2022/07/10 05:03:28;;;;;;;3.25;2.27;;;;;;;24.66;47.25;100731.48;1698607;82;21046;-51
2022/07/10 05:05:55;;;;;;;2.47;1.85;;;;;;;24.65;47.55;100729.77;1698477;82;21008;-52
2022/07/10 05:08:23;;;;;;;2.47;2.00;;;;;;;24.68;47.68;100737.52;1700578;82;21071;-51
2022/07/10 05:10:49;;;;;;;3.20;2.35;;;;;;;24.81;47.36;100745.75;1697414;82;21110;-54
2022/07/10 05:13:17;;;;;;;2.40;2.20;;;;;;;24.81;47.36;100745.75;1700341;84;21086;-50
2022/07/10 05:15:47;;;;;;;2.50;2.12;;;;;;;24.94;46.91;100742.94;1699420;82;21527;-51
2022/07/10 05:18:14;;;;;;;3.05;2.20;;;;;;;25.09;46.90;100752.34;1693716;83;21539;-50
2022/07/10 05:20:43;;;;;;;2.20;2.00;;;;;;;25.23;46.87;100741.87;1691650;83;21036;-54
2022/07/10 05:23:11;;;;;;;5.60;2.47;;;;;;;25.38;46.23;100729.48;1690813;83;21055;-51
2022/07/10 05:25:39;;;;;;;2.58;2.37;;;;;;;25.53;46.40;100726.88;1690907;83;21511;-51
2022/07/10 05:28:06;;;;;;;3.05;2.20;;;;;;;25.70;45.90;100732.97;1687552;83;21031;-50
2022/07/10 05:30:33;;;;;;;3.77;2.20;;;;;;;25.87;45.71;100720.88;1696898;83;21499;-53
2022/07/10 05:32:59;;;;;;;2.47;2.30;;;;;;;26.04;45.41;100722.09;1692690;83;21055;-55
2022/07/10 05:35:27;;;;;;;2.80;2.37;;;;;;;26.15;45.17;100719.38;1692816;84;21539;-50
2022/07/10 05:37:53;;;;;;;4.05;2.40;;;;;;;26.22;44.55;100713.85;1693550;83;21004;-51
2022/07/10 05:40:20;;;;;;;2.85;2.33;;;;;;;26.24;44.47;100720.75;1693586;83;21047;-50
2022/07/10 05:42:48;;;;;;;2.67;2.00;;;;;;;26.04;44.73;100720.27;1690759;83;21091;-53
2022/07/10 05:45:16;;;;;;;2.33;2.12;;;;;;;25.96;44.90;100719.24;1690395;83;21075;-49
2022/07/10 05:47:44;;;;;;;2.27;2.02;;;;;;;25.91;44.83;100710.78;1682408;83;21075;-52
2022/07/10 05:50:11;;;;;;;2.30;2.10;;;;;;;25.89;44.88;100712.73;1694177;84;21050;-52
2022/07/10 05:52:38;;;;;;;3.60;2.40;;;;;;;25.90;45.03;100715.30;1693795;83;21062;-50
2022/07/10 05:55:07;;;;;;;5.97;2.30;;;;;;;25.94;45.55;100718.53;1692992;83;21078;-49
2022/07/10 05:57:34;;;;;;;3.87;2.47;;;;;;;26.20;44.92;100719.81;1691050;83;21010;-51
2022/07/10 06:00:05;;;;;;;3.55;2.20;;;;;;;26.28;44.54;100715.98;1690557;83;21035;-49
2022/07/10 06:02:34;;;;;;;3.52;2.40;;;;;;;26.32;44.36;100720.07;1687536;83;21003;-53
2022/07/10 06:05:01;;;;;;;3.70;2.17;;;;;;;26.39;44.64;100711.89;1690405;83;21047;-49
2022/07/10 06:07:29;;;;;;;5.58;2.45;;;;;;;26.46;44.56;100707.72;1690528;83;21511;-52
2022/07/10 06:09:56;;;;;;;3.60;2.47;;;;;;;26.56;44.21;100708.08;1687954;84;21055;-49
2022/07/10 06:12:23;;;;;;;4.28;2.50;;;;;;;26.67;44.58;100708.45;1687552;83;21016;-51
2022/07/10 06:14:50;;;;;;;2.50;2.30;;;;;;;26.76;44.22;100709.50;1690326;83;21515;-50
2022/07/10 06:17:17;;;;;;;3.27;2.40;;;;;;;26.79;44.51;100718.06;1701081;83;21081;-52
2022/07/10 06:19:45;;;;;;;5.60;2.42;;;;;;;26.84;44.34;100709.17;1711457;82;21069;-50
2022/07/10 06:22:30;;;;;;;3.12;2.30;;;;;;;26.90;44.50;100715.29;1710772;82;21026;-54
2022/07/10 06:24:58;;;;;;;4.35;2.20;;;;;;;27.00;44.15;100713.95;1711435;82;21491;-55
2022/07/10 06:27:26;;;;;;;2.20;1.98;;;;;;;27.13;43.80;100714.05;1711348;82;21026;-50
2022/07/10 06:29:54;;;;;;;3.45;2.35;;;;;;;27.26;43.67;100713.30;1710655;82;21030;-51
2022/07/10 06:32:21;;;;;;;5.47;2.25;;;;;;;27.38;43.27;100704.18;1711604;82;21046;-53
2022/07/10 06:34:48;;;;;;;2.65;2.42;;;;;;;27.51;43.17;100705.23;1712259;82;21026;-51
2022/07/10 06:37:15;;;;;;;3.15;2.17;;;;;;;27.64;42.64;100704.90;1713889;82;21074;-51
2022/07/10 06:39:42;;;;;;;2.30;2.00;;;;;;;27.73;42.54;100709.40;1710082;83;21054;-51
2022/07/10 06:42:09;;;;;;;2.62;2.05;;;;;;;27.77;42.21;100711.64;1705436;82;21038;-50
2022/07/10 06:44:39;;;;;;;2.90;2.00;;;;;;;27.77;42.47;100713.47;1705541;82;21479;-52
2022/07/10 06:49:53;;;;;;;4.20;2.65;;;;;;;27.74;42.44;100707.09;1714107;82;21090;-50
2022/07/10 06:52:19;;;;;;;2.37;2.17;;;;;;;27.72;42.39;100700.52;1713732;82;21042;-49
2022/07/10 06:54:46;;;;;;;4.50;2.40;;;;;;;27.69;42.51;100699.98;1711013;82;21035;-54
2022/07/10 06:57:14;;;;;;;2.77;2.22;;;;;;;27.72;42.55;100697.85;1711009;82;21061;-52
2022/07/10 06:59:40;;;;;;;4.25;2.17;;;;;;;27.74;42.38;100699.07;1711259;82;21035;-49
2022/07/10 07:02:08;;;;;;;1.85;1.75;;;;;;;27.77;42.40;100689.41;1711105;82;21038;-51
2022/07/10 07:04:35;;;;;;;2.58;2.12;;;;;;;27.79;42.70;100690.95;1711854;82;21094;-52
2022/07/10 07:07:02;;;;;;;2.60;2.00;;;;;;;27.83;42.74;100695.51;1714194;82;21030;-50
2022/07/10 07:09:29;;;;;;;3.42;2.05;;;;;;;27.89;42.52;100686.91;1713936;82;21030;-49
2022/07/10 07:11:56;;;;;;;3.35;2.25;;;;;;;27.94;42.83;100688.66;1711698;82;21093;-49
2022/07/10 07:14:23;;;;;;;3.47;2.45;;;;;;;27.96;42.88;100678.69;1712972;82;21563;-51
2022/07/10 07:17:03;;;;;;;3.15;2.20;;;;;;;28.00;42.67;100678.75;1713133;83;21018;-50
2022/07/10 07:19:32;;;;;;;2.08;1.98;;;;;;;28.03;42.11;100674.42;1701025;82;21550;-51
2022/07/10 07:24:45;;;;;;;3.77;2.22;;;;;;;28.10;41.93;100664.83;1707615;82;21117;-52
2022/07/10 07:27:12;;;;;;;2.30;2.10;;;;;;;28.14;42.06;100663.55;1714339;82;21023;-49
2022/07/10 07:29:39;;;;;;;3.80;2.20;;;;;;;28.19;41.89;100663.44;1714036;82;21104;-52
2022/07/10 07:32:07;;;;;;;4.40;2.10;;;;;;;28.26;41.64;100666.86;1712086;82;21565;-53
2022/07/10 07:34:35;;;;;;;3.95;1.90;;;;;;;28.38;41.75;100657.67;1712361;82;21582;-52
2022/07/10 07:37:02;;;;;;;4.05;2.00;;;;;;;28.49;41.89;100664.14;1713185;83;21054;-50
2022/07/10 07:39:29;;;;;;;5.08;1.82;;;;;;;28.57;41.16;100661.09;1709219;83;21088;-50
2022/07/10 07:41:56;;;;;;;3.50;2.22;;;;;;;28.64;41.07;100660.84;1719940;82;21026;-51
2022/07/10 07:44:22;;;;;;;4.17;1.80;;;;;;;28.67;40.36;100657.00;1714172;82;21046;-51
2022/07/10 07:46:49;;;;;;;2.40;1.90;;;;;;;28.71;39.66;100655.70;1709881;83;21058;-50
2022/07/10 07:49:17;;;;;;;2.77;2.10;;;;;;;28.74;39.70;100654.08;1708831;82;21038;-51
2022/07/10 07:51:44;;;;;;;2.10;1.80;;;;;;;28.76;39.68;100652.94;1711552;82;21074;-56
2022/07/10 07:54:11;;;;;;;2.55;1.92;;;;;;;28.78;39.42;100650.95;1710919;82;21050;-50
2022/07/10 07:56:38;;;;;;;2.10;1.90;;;;;;;28.77;39.60;100651.93;1711208;82;21015;-51
2022/07/10 07:59:05;;;;;;;6.20;2.10;;;;;;;28.77;38.79;100655.95;1720143;82;21003;-50
2022/07/10 08:01:32;;;;;;;3.77;2.20;;;;;;;28.78;39.60;100652.29;1713771;82;21041;-51
2022/07/10 08:03:59;;;;;;;4.05;1.67;;;;;;;28.82;39.41;100650.99;1712843;82;21046;-50
2022/07/10 08:06:26;;;;;;;4.20;1.98;;;;;;;28.85;39.14;100647.98;1711927;82;21066;-53
2022/07/10 08:08:53;;;;;;;4.37;1.90;;;;;;;28.91;38.31;100638.52;1712983;83;21098;-51
2022/07/10 08:11:20;;;;;;;2.75;1.95;;;;;;;28.94;38.23;100640.39;1713970;82;21067;-51
2022/07/10 08:13:47;;;;;;;2.50;1.70;;;;;;;28.95;37.92;100634.02;1701509;82;20971;-52
2022/07/10 08:16:13;;;;;;;2.12;1.70;;;;;;;28.98;37.99;100629.71;1711866;83;21070;-50
2022/07/10 08:18:40;;;;;;;3.37;1.95;;;;;;;29.04;37.54;100632.78;1704499;82;21083;-53
2022/07/10 08:21:07;;;;;;;3.50;1.80;;;;;;;29.07;37.50;100633.80;1698412;82;21195;-50
2022/07/10 08:23:34;;;;;;;3.22;2.10;;;;;;;29.10;37.47;100628.14;1697700;82;21100;-51
2022/07/10 08:26:01;;;;;;;2.67;1.90;;;;;;;29.13;37.59;100629.16;1698590;82;21086;-49
2022/07/10 08:28:28;;;;;;;2.95;2.27;;;;;;;29.16;37.28;100622.20;1698170;82;21035;-51
2022/07/10 08:30:54;;;;;;;3.72;2.20;;;;;;;29.18;36.95;100627.72;1666846;84;21063;-52
2022/07/10 08:33:21;;;;;;;3.95;2.10;;;;;;;29.16;36.84;100627.03;1701440;82;21054;-50
2022/07/10 08:35:48;;;;;;;8.55;1.95;;;;;;;29.16;36.97;100639.09;1699676;82;21718;-51
2022/07/10 08:38:15;;;;;;;2.37;1.42;;;;;;;29.17;35.85;100630.56;1699338;82;21011;-50
2022/07/10 08:40:42;;;;;;;1.98;1.60;;;;;;;29.19;36.35;100628.08;1700337;84;21074;-50
2022/07/10 08:43:09;;;;;;;3.52;1.75;;;;;;;29.19;35.30;100632.59;1700730;82;21058;-52
2022/07/10 08:45:36;;;;;;;3.45;2.10;;;;;;;29.20;35.71;100643.66;1698021;82;21066;-50
2022/07/10 08:48:05;;;;;;;2.15;1.60;;;;;;;29.21;35.55;100631.44;1698191;82;21071;-51
2022/07/10 08:50:34;;;;;;;3.02;1.87;;;;;;;29.25;36.22;100633.30;1698244;82;20987;-52
2022/07/10 08:53:05;;;;;;;1.62;1.50;;;;;;;29.32;36.26;100627.67;1698688;82;21007;-49
2022/07/10 08:55:32;;;;;;;2.15;1.72;;;;;;;29.38;35.72;100630.58;1694388;82;21047;-51
2022/07/10 08:58:00;;;;;;;1.80;1.70;;;;;;;29.44;35.09;100631.78;1699721;82;21488;-52
2022/07/10 09:00:26;;;;;;;2.02;1.62;;;;;;;29.48;35.38;100637.17;1701137;82;21059;-50
2022/07/10 09:02:55;;;;;;;3.83;1.70;;;;;;;29.56;35.26;100638.56;1700594;82;21070;-51
2022/07/10 09:05:23;;;;;;;1.82;1.65;;;;;;;29.62;36.53;100637.92;1704768;82;21500;-50
2022/07/10 09:07:51;;;;;;;1.92;1.65;;;;;;;29.69;35.18;100636.31;1699607;82;22205;-52
2022/07/10 09:10:20;;;;;;;4.40;1.72;;;;;;;29.71;35.11;100625.77;1699063;84;21047;-52
2022/07/10 09:12:56;;;;;;;1.80;1.70;;;;;;;29.75;35.53;100629.00;1676891;84;21035;-49
2022/07/10 09:18:02;;;;;;;3.00;1.70;;;;;;;29.86;35.41;100630.08;1675924;85;21055;-50
2022/07/10 09:20:39;;;;;;;2.17;1.60;;;;;;;29.88;36.35;100628.08;1645657;86;21078;-53
2022/07/10 09:23:20;;;;;;;3.05;1.45;;;;;;;29.92;35.16;100618.70;1603569;89;21088;-50
2022/07/10 09:25:48;;;;;;;2.52;1.82;;;;;;;29.98;35.78;100620.75;1602912;89;21065;-54
2022/07/10 09:28:18;;;;;;;2.02;1.80;;;;;;;30.03;35.71;100613.03;1603614;89;21581;-50
2022/07/10 09:30:45;;;;;;;1.97;1.67;;;;;;;30.07;35.04;100609.03;1603557;88;21053;-53
2022/07/10 09:33:29;;;;;;;2.10;1.72;;;;;;;30.13;35.16;100616.42;1603379;89;21572;-53
2022/07/10 09:36:11;;;;;;;3.58;1.57;;;;;;;30.19;35.47;100610.41;1600475;89;21060;-53
2022/07/10 09:38:54;;;;;;;4.53;1.85;;;;;;;30.25;35.31;100619.16;1551590;92;21097;-51
2022/07/10 09:41:27;;;;;;;3.17;1.90;;;;;;;30.28;35.42;100609.45;1547607;92;21062;-49
2022/07/10 09:44:03;;;;;;;1.50;1.40;;;;;;;30.30;35.50;100610.16;1534620;92;21098;-52
2022/07/10 09:46:41;;;;;;;2.20;1.65;;;;;;;30.33;34.92;100604.48;1526452;93;21052;-54
2022/07/10 09:49:13;;;;;;;4.20;1.70;;;;;;;30.38;35.14;100599.94;1528403;93;21056;-51
2022/07/10 09:51:45;;;;;;;1.65;1.50;;;;;;;30.41;34.54;100600.96;1536276;93;21107;-50
2022/07/10 09:54:13;;;;;;;4.67;1.50;;;;;;;30.45;34.42;100597.80;1534787;93;21107;-53
2022/07/10 09:56:46;;;;;;;2.17;1.47;;;;;;;30.49;34.46;100593.77;1528405;93;21138;-55
2022/07/10 09:59:15;;;;;;;5.58;1.75;;;;;;;30.53;34.74;100596.46;1505740;95;21111;-53
2022/07/10 10:01:50;;;;;;;1.52;1.42;;;;;;;30.54;35.28;100591.41;1505064;94;21094;-50
2022/07/10 10:04:20;;;;;;;1.77;1.60;;;;;;;30.58;34.59;100583.04;1504887;94;21094;-51
2022/07/10 10:06:51;;;;;;;1.72;1.40;;;;;;;30.61;35.17;100582.69;1540031;93;21159;-49
2022/07/10 10:09:26;;;;;;;1.80;1.50;;;;;;;30.63;34.28;100580.68;1520530;94;21115;-51
2022/07/10 10:12:08;;;;;;;1.57;1.47;;;;;;;30.67;34.33;100587.40;1519520;94;21103;-52
2022/07/10 10:14:34;;;;;;;1.65;1.40;;;;;;;30.71;34.36;100586.09;1501164;94;21116;-51
2022/07/10 10:17:02;;;;;;;2.55;1.95;;;;;;;30.73;34.65;100581.39;1486547;96;21608;-50
2022/07/10 10:22:15;;;;;;;2.52;1.47;;;;;;;30.78;34.42;100576.34;1529063;92;21075;-50
2022/07/10 10:24:43;;;;;;;3.90;1.60;;;;;;;30.82;34.21;100573.66;1529163;92;21595;-51
2022/07/10 10:27:10;;;;;;;1.65;1.25;;;;;;;30.82;33.95;100577.69;1581640;86;21105;-48
2022/07/10 10:29:38;;;;;;;1.50;1.40;;;;;;;30.84;34.09;100572.98;1621818;86;21058;-53
2022/07/10 10:32:07;;;;;;;2.80;1.20;;;;;;;30.86;34.41;100576.37;1624490;86;21063;-55
2022/07/10 10:34:44;;;;;;;2.30;1.62;;;;;;;30.85;33.71;100572.84;1603693;88;21059;-54
2022/07/10 10:40:05;;;;;;;2.83;1.45;;;;;;;30.88;33.73;100568.98;1534527;92;21081;-53
2022/07/10 10:42:38;;;;;;;1.92;1.20;;;;;;;30.94;33.93;100573.69;1533117;92;21093;-52
2022/07/10 10:45:34;;;;;;;1.32;1.22;;;;;;;30.99;34.06;100568.66;1533105;92;21075;-53
2022/07/10 10:48:12;;;;;;;2.33;1.30;;;;;;;31.06;34.16;100566.95;1474771;96;21072;-51
2022/07/10 10:50:48;;;;;;;2.72;1.32;;;;;;;31.05;33.96;100569.33;1481057;96;21144;-50
2022/07/10 10:53:26;;;;;;;3.95;1.02;;;;;;;31.10;33.19;100565.11;1481033;96;21645;-50
2022/07/10 10:56:08;;;;;;;1.80;1.20;;;;;;;31.12;33.17;100564.94;1513108;92;21229;-51
2022/07/10 10:58:44;;;;;;;2.83;1.35;;;;;;;31.15;33.15;100557.89;1555048;92;21605;-56
2022/07/10 11:01:28;;;;;;;1.10;1.00;;;;;;;31.15;33.52;100550.67;1555354;92;21157;-52
2022/07/10 11:04:13;;;;;;;1.50;1.15;;;;;;;31.18;32.76;100549.50;1555399;92;21632;-49
2022/07/10 11:06:47;;;;;;;1.12;1.10;;;;;;;31.15;33.12;100549.83;1570719;90;21079;-50
2022/07/10 11:09:28;;;;;;;3.12;1.30;;;;;;;31.15;33.22;100543.95;1577086;90;21134;-52
2022/07/10 11:12:05;;;;;;;1.20;1.10;;;;;;;31.24;32.87;100544.25;1575628;90;21063;-49
2022/07/10 11:14:37;;;;;;;1.15;0.85;;;;;;;31.28;32.83;100544.77;1573951;90;21554;-55
2022/07/10 11:17:05;;;;;;;1.27;1.17;;;;;;;31.32;32.57;100540.20;1520542;92;21105;-50
2022/07/10 11:19:33;;;;;;;2.70;1.15;;;;;;;31.37;33.06;100540.22;1518527;93;21140;-51
2022/07/10 11:22:49;;;;;;;1.02;0.93;;;;;;;31.42;32.49;100541.41;1523631;93;21085;-49
2022/07/10 11:25:44;;;;;;;2.55;1.00;;;;;;;31.47;32.44;100537.68;1545410;90;21062;-50
2022/07/10 11:28:12;;;;;;;1.45;1.02;;;;;;;31.54;32.24;100533.30;1559965;90;21597;-53
2022/07/10 11:30:54;;;;;;;2.05;1.22;;;;;;;31.59;31.40;100534.98;1559872;91;21549;-53
2022/07/10 11:33:21;;;;;;;1.10;1.10;;;;;;;31.63;31.40;100530.93;1559885;91;21061;-49
2022/07/10 11:35:51;;;;;;;1.40;0.95;;;;;;;31.67;31.75;100530.91;1561524;89;21065;-51
2022/07/10 11:38:25;;;;;;;3.00;1.20;;;;;;;31.69;31.32;100527.54;1609515;88;21034;-51
2022/07/10 11:40:54;;;;;;;0.75;0.75;;;;;;;31.73;31.05;100528.02;1609478;88;21033;-50
2022/07/10 11:43:23;;;;;;;1.77;1.00;;;;;;;31.76;30.80;100523.12;1609210;88;21042;-51
2022/07/10 11:45:52;;;;;;;1.85;1.27;;;;;;;31.76;31.67;100513.70;1597448;88;21038;-49
2022/07/10 11:48:21;;;;;;;1.35;1.00;;;;;;;31.73;31.09;100515.41;1609637;89;21037;-51
2022/07/10 11:50:48;;;;;;;0.90;0.82;;;;;;;31.74;30.79;100518.42;1609419;88;20990;-52